createdAt,value
2023-04-26T00:02:00.803Z,68.65
2023-04-26T00:04:29.533Z,68.96
2023-04-26T00:06:57.171Z,68.89
2023-04-26T00:09:24.270Z,68.89
2023-04-26T00:11:51.479Z,69.19
2023-04-26T00:14:18.699Z,69.16
2023-04-26T00:16:45.754Z,69.13
2023-04-26T00:19:13.980Z,69.10
2023-04-26T00:21:41.130Z,69.11
2023-04-26T00:24:09.074Z,69.59
2023-04-26T00:26:36.292Z,69.71
2023-04-26T00:29:04.859Z,70.02
2023-04-26T00:31:32.046Z,69.95
2023-04-26T00:33:59.212Z,70.20
2023-04-26T00:36:26.484Z,70.08
2023-04-26T00:38:53.970Z,70.01
2023-04-26T00:41:22.163Z,69.95
2023-04-26T00:43:49.437Z,70.23
2023-04-26T00:46:16.556Z,70.03
2023-04-26T00:48:45.155Z,70.28
2023-04-26T00:51:13.243Z,70.16
2023-04-26T00:53:41.497Z,70.00
2023-04-26T00:56:10.549Z,70.42
2023-04-26T00:58:38.089Z,69.99
2023-04-26T01:01:05.543Z,69.78
2023-04-26T01:03:32.886Z,70.20
2023-04-26T01:06:01.217Z,69.75
2023-04-26T01:08:28.493Z,69.86
2023-04-26T01:10:59.261Z,70.26
2023-04-26T01:13:26.965Z,70.24
2023-04-26T01:15:56.025Z,70.18
2023-04-26T01:18:23.168Z,69.90
2023-04-26T01:20:52.214Z,69.93
2023-04-26T01:23:19.382Z,70.21
2023-04-26T01:25:46.721Z,70.67
2023-04-26T01:28:13.824Z,70.92
2023-04-26T01:30:41.110Z,71.21
2023-04-26T01:33:08.289Z,71.03
2023-04-26T01:35:35.725Z,71.73
2023-04-26T01:38:04.490Z,71.40
2023-04-26T01:40:31.541Z,71.91
2023-04-26T01:42:58.675Z,72.03
2023-04-26T01:45:30.974Z,72.63
2023-04-26T01:48:16.856Z,72.17
2023-04-26T01:50:43.998Z,72.75
2023-04-26T01:53:13.833Z,72.68
2023-04-26T01:55:41.888Z,72.80
2023-04-26T01:58:09.787Z,73.21
2023-04-26T02:00:37.664Z,73.03
2023-04-26T02:03:04.815Z,73.12
2023-04-26T02:05:31.982Z,72.89
2023-04-26T02:07:59.036Z,73.42
2023-04-26T02:10:26.178Z,73.21
2023-04-26T02:12:53.181Z,73.58
2023-04-26T02:15:20.607Z,73.09
2023-04-26T02:17:47.578Z,73.08
2023-04-26T02:20:14.914Z,73.48
2023-04-26T02:22:41.943Z,73.75
2023-04-26T02:25:09.160Z,73.83
2023-04-26T02:27:36.293Z,73.82
2023-04-26T02:30:04.134Z,73.73
2023-04-26T02:32:31.267Z,73.94
2023-04-26T02:34:58.627Z,73.99
2023-04-26T02:37:25.923Z,73.62
2023-04-26T02:39:53.248Z,73.87
2023-04-26T02:42:20.494Z,73.83
2023-04-26T02:44:47.686Z,73.71
2023-04-26T02:47:14.845Z,74.29
2023-04-26T02:49:42.150Z,74.21
2023-04-26T02:52:09.904Z,74.49
2023-04-26T02:54:37.943Z,74.71
2023-04-26T02:57:05.261Z,74.77
2023-04-26T02:59:32.667Z,74.77
2023-04-26T03:01:59.994Z,75.24
2023-04-26T03:04:27.879Z,74.90
2023-04-26T03:06:54.885Z,75.03
2023-04-26T03:09:22.425Z,75.24
2023-04-26T03:11:50.969Z,75.44
2023-04-26T03:14:18.206Z,75.25
2023-04-26T03:16:46.148Z,75.75
2023-04-26T03:19:13.240Z,75.09
2023-04-26T03:21:41.181Z,75.53
2023-04-26T03:24:08.359Z,75.57
2023-04-26T03:26:35.448Z,75.35
2023-04-26T03:29:03.366Z,75.57
2023-04-26T03:31:30.451Z,75.29
2023-04-26T03:33:57.557Z,75.27
2023-04-26T03:36:24.736Z,75.22
2023-04-26T03:38:52.074Z,75.58
2023-04-26T03:41:20.738Z,75.55
2023-04-26T03:43:49.064Z,75.36
2023-04-26T03:46:17.746Z,75.05
2023-04-26T03:48:48.518Z,74.85
2023-04-26T03:51:15.565Z,75.66
2023-04-26T03:53:42.645Z,75.41
2023-04-26T03:56:09.724Z,75.39
2023-04-26T03:58:37.290Z,75.36
2023-04-26T04:01:05.097Z,74.98
2023-04-26T04:03:32.496Z,75.38
2023-04-26T04:05:59.784Z,75.21
2023-04-26T04:08:26.922Z,75.35
2023-04-26T04:10:54.036Z,75.53
2023-04-26T04:13:21.139Z,75.57
2023-04-26T04:15:48.504Z,75.16
2023-04-26T04:18:15.767Z,75.51
2023-04-26T04:20:42.825Z,75.09
2023-04-26T04:23:10.253Z,74.81
2023-04-26T04:25:39.680Z,74.76
2023-04-26T04:28:09.437Z,74.40
2023-04-26T04:30:36.973Z,74.61
2023-04-26T04:33:05.581Z,74.49
2023-04-26T04:35:34.309Z,74.64
2023-04-26T04:38:04.561Z,74.76
2023-04-26T04:40:32.566Z,74.57
2023-04-26T04:43:01.165Z,74.62
2023-04-26T04:45:29.852Z,74.42
2023-04-26T04:47:58.711Z,74.28
2023-04-26T04:50:26.874Z,74.37
2023-04-26T04:52:55.959Z,74.37
2023-04-26T04:55:23.038Z,73.83
2023-04-26T04:57:50.156Z,74.21
2023-04-26T05:00:17.697Z,74.02
2023-04-26T05:02:52.223Z,73.80
2023-04-26T05:05:20.136Z,73.67
2023-04-26T05:07:47.496Z,73.59
2023-04-26T05:10:15.867Z,73.58
2023-04-26T05:12:42.929Z,73.59
2023-04-26T05:15:10.750Z,73.38
2023-04-26T05:17:38.040Z,73.53
2023-04-26T05:20:17.364Z,73.69
2023-04-26T05:22:44.646Z,73.19
2023-04-26T05:25:13.735Z,73.25
2023-04-26T05:27:41.572Z,73.32
2023-04-26T05:30:27.567Z,72.91
2023-04-26T05:33:04.795Z,73.24
2023-04-26T05:35:47.177Z,72.63
2023-04-26T05:38:15.352Z,73.13
2023-04-26T05:40:42.449Z,73.48
2023-04-26T05:43:10.847Z,73.78
2023-04-26T05:45:39.363Z,73.45
2023-04-26T05:48:07.095Z,73.67
2023-04-26T05:50:34.155Z,73.47
2023-04-26T05:53:01.580Z,72.97
2023-04-26T05:55:29.682Z,72.80
2023-04-26T05:57:57.137Z,72.51
2023-04-26T06:00:24.707Z,72.47
2023-04-26T06:02:52.230Z,72.33
2023-04-26T06:05:19.623Z,71.93
2023-04-26T06:07:47.653Z,71.68
2023-04-26T06:10:14.825Z,72.25
2023-04-26T06:12:43.288Z,71.77
2023-04-26T06:15:11.608Z,71.92
2023-04-26T06:17:41.307Z,71.09
2023-04-26T06:20:10.505Z,70.97
2023-04-26T06:22:38.363Z,70.69
2023-04-26T06:25:06.966Z,70.04
2023-04-26T06:27:36.299Z,70.23
2023-04-26T06:30:03.889Z,68.50
2023-04-26T06:32:32.354Z,68.47
2023-04-26T06:34:59.651Z,67.82
2023-04-26T06:37:26.827Z,68.16
2023-04-26T06:39:54.897Z,68.75
2023-04-26T06:42:22.626Z,68.50
2023-04-26T06:45:06.847Z,68.97
2023-04-26T06:47:36.764Z,69.39
2023-04-26T06:50:05.138Z,67.90
2023-04-26T06:52:32.322Z,67.87
2023-04-26T06:55:03.544Z,68.94
2023-04-26T06:57:31.013Z,67.55
2023-04-26T06:59:58.434Z,67.58
2023-04-26T07:02:25.825Z,67.11
2023-04-26T07:04:53.378Z,67.14
2023-04-26T07:07:20.980Z,66.91
2023-04-26T07:09:48.050Z,65.68
2023-04-26T07:12:15.133Z,65.78
2023-04-26T07:14:43.557Z,64.22
2023-04-26T07:17:11.252Z,64.22
2023-04-26T07:19:38.876Z,63.41
2023-04-26T07:22:06.302Z,62.74
2023-04-26T07:24:33.638Z,62.45
2023-04-26T07:27:02.275Z,62.13
2023-04-26T07:29:29.444Z,62.03
2023-04-26T07:31:57.463Z,60.97
2023-04-26T07:34:24.949Z,60.50
2023-04-26T07:36:52.083Z,59.92
2023-04-26T07:39:19.310Z,59.30
2023-04-26T07:41:46.480Z,58.13
2023-04-26T07:44:13.551Z,57.91
2023-04-26T07:46:40.607Z,57.88
2023-04-26T07:49:07.724Z,58.69
2023-04-26T07:51:37.374Z,57.22
2023-04-26T07:54:04.527Z,58.10
2023-04-26T07:56:31.706Z,57.36
2023-04-26T07:58:58.989Z,57.73
2023-04-26T08:01:26.303Z,58.02
2023-04-26T08:03:54.954Z,57.26
2023-04-26T08:06:22.838Z,57.08
2023-04-26T08:08:51.114Z,57.48
2023-04-26T08:11:18.540Z,57.78
2023-04-26T08:13:45.924Z,57.79
2023-04-26T08:16:13.220Z,57.84
2023-04-26T08:18:40.496Z,57.60
2023-04-26T08:21:07.917Z,56.86
2023-04-26T08:23:36.721Z,56.21
2023-04-26T08:26:04.337Z,56.72
2023-04-26T08:28:31.692Z,56.77
2023-04-26T08:30:58.933Z,54.64
2023-04-26T08:33:26.359Z,54.16
2023-04-26T08:35:53.560Z,54.01
2023-04-26T08:38:22.925Z,53.62
2023-04-26T08:40:51.968Z,53.36
2023-04-26T08:43:19.077Z,51.02
2023-04-26T08:45:47.362Z,51.64
2023-04-26T08:48:18.410Z,51.23
2023-04-26T08:50:48.912Z,50.47
2023-04-26T08:53:21.742Z,50.72
2023-04-26T08:55:50.188Z,50.07
2023-04-26T08:58:21.786Z,49.39
2023-04-26T09:00:50.617Z,50.42
2023-04-26T09:03:18.285Z,51.77
2023-04-26T09:05:46.102Z,52.43
2023-04-26T09:08:17.711Z,52.78
2023-04-26T09:10:45.212Z,51.31
2023-04-26T09:13:12.663Z,51.46
2023-04-26T09:15:40.399Z,51.36
2023-04-26T09:18:22.050Z,51.29
2023-04-26T09:21:09.539Z,50.73
2023-04-26T09:23:36.874Z,49.73
2023-04-26T09:26:21.122Z,50.25
2023-04-26T09:28:48.779Z,50.04
2023-04-26T09:31:37.635Z,50.69
2023-04-26T09:34:05.124Z,50.82
2023-04-26T09:36:32.508Z,50.23
2023-04-26T09:39:01.222Z,50.70
2023-04-26T09:41:47.441Z,49.32
2023-04-26T09:44:24.801Z,49.96
2023-04-26T09:47:06.886Z,47.83
2023-04-26T09:49:44.861Z,47.00
2023-04-26T09:52:12.046Z,44.49
2023-04-26T09:54:44.961Z,44.38
2023-04-26T09:57:14.043Z,44.79
2023-04-26T09:59:46.345Z,45.28
2023-04-26T10:02:17.418Z,44.85
2023-04-26T10:04:47.260Z,44.57
2023-04-26T10:07:16.270Z,43.95
2023-04-26T10:09:44.100Z,43.53
2023-04-26T10:12:12.923Z,44.82
2023-04-26T10:14:40.404Z,44.46
2023-04-26T10:17:07.795Z,45.04
2023-04-26T10:19:37.161Z,45.53
2023-04-26T10:22:08.549Z,44.48
2023-04-26T10:24:37.185Z,45.25
2023-04-26T10:27:04.933Z,45.87
2023-04-26T10:29:54.861Z,45.33
2023-04-26T10:32:23.201Z,46.19
2023-04-26T10:35:13.539Z,45.56
2023-04-26T10:38:01.215Z,44.76
2023-04-26T10:40:38.962Z,45.75
2023-04-26T10:43:19.748Z,45.93
2023-04-26T10:45:48.181Z,46.30
2023-04-26T10:48:18.053Z,46.79
2023-04-26T10:51:08.025Z,45.03
2023-04-26T10:53:35.105Z,45.15
2023-04-26T10:56:02.325Z,45.55
2023-04-26T10:58:31.833Z,45.87
2023-04-26T11:01:19.277Z,45.29
2023-04-26T11:03:59.331Z,46.24
2023-04-26T11:06:27.140Z,44.91
2023-04-26T11:08:55.263Z,44.23
2023-04-26T11:11:27.269Z,42.74
2023-04-26T11:13:54.466Z,43.93
2023-04-26T11:16:21.820Z,43.17
2023-04-26T11:18:49.135Z,42.51
2023-04-26T11:21:19.121Z,43.85
2023-04-26T11:23:56.103Z,44.35
2023-04-26T11:26:25.067Z,44.67
2023-04-26T11:28:52.479Z,45.12
2023-04-26T11:31:20.149Z,45.28
2023-04-26T11:33:49.202Z,45.36
2023-04-26T11:36:17.839Z,44.87
2023-04-26T11:38:45.015Z,44.20
2023-04-26T11:41:12.136Z,43.08
2023-04-26T11:43:40.054Z,42.08
2023-04-26T11:46:10.156Z,41.64
2023-04-26T11:48:38.791Z,42.68
2023-04-26T11:51:08.462Z,42.30
2023-04-26T11:53:45.780Z,42.14
2023-04-26T11:56:23.248Z,41.80
2023-04-26T11:58:52.177Z,42.82
2023-04-26T12:01:23.918Z,41.91
2023-04-26T12:03:53.153Z,41.27
2023-04-26T12:06:25.987Z,40.54
2023-04-26T12:08:53.434Z,40.97
2023-04-26T12:11:21.365Z,41.36
2023-04-26T12:13:48.820Z,41.39
2023-04-26T12:16:25.607Z,41.07
2023-04-26T12:18:55.501Z,41.59
2023-04-26T12:21:24.646Z,41.76
2023-04-26T12:23:52.055Z,42.67
2023-04-26T12:26:20.636Z,43.34
2023-04-26T12:28:47.867Z,42.91
2023-04-26T12:31:15.081Z,43.13
2023-04-26T12:33:42.505Z,43.61
2023-04-26T12:36:11.608Z,43.62
2023-04-26T12:38:39.785Z,43.38
2023-04-26T12:41:07.352Z,44.04
2023-04-26T12:43:34.741Z,43.67
2023-04-26T12:46:01.982Z,42.53
2023-04-26T12:48:29.241Z,42.91
2023-04-26T12:50:56.938Z,40.96
2023-04-26T12:53:24.053Z,41.26
2023-04-26T12:55:51.148Z,42.47
2023-04-26T12:58:18.306Z,42.07
2023-04-26T13:00:45.610Z,42.54
2023-04-26T13:03:14.938Z,41.97
2023-04-26T13:05:42.315Z,42.86
2023-04-26T13:08:09.492Z,42.35
2023-04-26T13:10:36.626Z,43.01
2023-04-26T13:13:03.836Z,42.63
2023-04-26T13:15:31.037Z,43.37
2023-04-26T13:17:58.265Z,43.93
2023-04-26T13:20:26.741Z,43.73
2023-04-26T13:22:55.767Z,43.87
2023-04-26T13:25:23.525Z,43.94
2023-04-26T13:27:53.820Z,43.16
2023-04-26T13:30:20.951Z,43.02
2023-04-26T13:32:48.257Z,42.54
2023-04-26T13:35:15.403Z,42.55
2023-04-26T13:37:42.863Z,42.64
2023-04-26T13:40:11.493Z,43.10
2023-04-26T13:42:39.695Z,44.03
2023-04-26T13:45:10.318Z,45.16
2023-04-26T13:47:37.432Z,43.91
2023-04-26T13:50:04.919Z,44.44
2023-04-26T13:52:32.046Z,44.64
2023-04-26T13:54:59.227Z,45.11
2023-04-26T13:57:26.323Z,45.96
2023-04-26T13:59:53.490Z,46.17
2023-04-26T14:02:21.639Z,46.48
2023-04-26T14:04:49.294Z,46.77
2023-04-26T14:07:17.253Z,46.27
2023-04-26T14:09:44.303Z,46.20
2023-04-26T14:12:11.643Z,46.30
2023-04-26T14:14:38.740Z,45.91
2023-04-26T14:17:05.784Z,46.01
2023-04-26T14:19:32.819Z,46.41
2023-04-26T14:21:59.936Z,45.93
2023-04-26T14:24:26.984Z,45.08
2023-04-26T14:26:54.149Z,45.68
2023-04-26T14:29:21.414Z,45.68
2023-04-26T14:31:48.551Z,46.05
2023-04-26T14:34:15.780Z,45.50
2023-04-26T14:36:42.976Z,45.99
2023-04-26T14:39:10.044Z,46.36
2023-04-26T14:41:37.637Z,46.90
2023-04-26T14:44:04.863Z,47.06
2023-04-26T14:46:31.998Z,46.29
2023-04-26T14:48:59.340Z,46.34
2023-04-26T14:51:27.592Z,45.97
2023-04-26T14:53:54.770Z,45.74
2023-04-26T14:56:22.438Z,45.47
2023-04-26T14:58:49.772Z,45.69
2023-04-26T15:01:17.488Z,44.95
2023-04-26T15:03:45.009Z,45.75
2023-04-26T15:06:12.329Z,45.26
2023-04-26T15:08:39.631Z,45.50
2023-04-26T15:11:06.773Z,46.26
2023-04-26T15:13:33.957Z,46.40
2023-04-26T15:16:07.569Z,45.79
2023-04-26T15:18:35.239Z,46.35
2023-04-26T15:21:02.423Z,45.85
2023-04-26T15:23:29.500Z,45.59
2023-04-26T15:26:02.060Z,46.19
2023-04-26T15:28:29.446Z,46.18
2023-04-26T15:31:08.293Z,45.74
2023-04-26T15:33:36.526Z,46.56
2023-04-26T15:36:03.921Z,46.15
2023-04-26T15:38:30.970Z,46.47
2023-04-26T15:40:58.111Z,46.29
2023-04-26T15:43:25.546Z,45.96
2023-04-26T15:45:53.221Z,46.06
2023-04-26T15:48:20.367Z,46.76
2023-04-26T15:50:47.666Z,47.27
2023-04-26T15:53:14.808Z,46.66
2023-04-26T15:55:42.070Z,45.89
2023-04-26T15:58:09.148Z,45.35
2023-04-26T16:00:36.740Z,44.88
2023-04-26T16:03:04.199Z,44.07
2023-04-26T16:05:32.002Z,44.66
2023-04-26T16:08:03.968Z,45.20
2023-04-26T16:10:31.188Z,44.98
2023-04-26T16:12:59.084Z,45.03
2023-04-26T16:15:26.573Z,45.15
2023-04-26T16:17:53.708Z,45.63
2023-04-26T16:20:21.530Z,45.99
2023-04-26T16:22:50.052Z,46.11
2023-04-26T16:25:17.436Z,46.42
2023-04-26T16:27:44.828Z,46.70
2023-04-26T16:30:12.444Z,47.10
2023-04-26T16:32:39.806Z,46.75
2023-04-26T16:35:09.073Z,46.92
2023-04-26T16:37:39.404Z,47.24
2023-04-26T16:40:08.108Z,47.24
2023-04-26T16:42:35.382Z,47.38
2023-04-26T16:45:02.482Z,47.35
2023-04-26T16:47:29.829Z,47.92
2023-04-26T16:49:57.487Z,47.87
2023-04-26T16:52:24.534Z,48.56
2023-04-26T16:54:51.654Z,49.07
2023-04-26T16:57:19.121Z,48.99
2023-04-26T16:59:46.559Z,49.50
2023-04-26T17:02:14.180Z,49.35
2023-04-26T17:04:42.204Z,49.55
2023-04-26T17:07:09.737Z,49.64
2023-04-26T17:09:38.521Z,49.81
2023-04-26T17:12:07.682Z,50.10
2023-04-26T17:14:35.089Z,50.16
2023-04-26T17:17:02.263Z,50.37
2023-04-26T17:19:29.664Z,50.54
2023-04-26T17:21:56.866Z,50.12
2023-04-26T17:24:24.030Z,50.67
2023-04-26T17:26:51.853Z,50.96
2023-04-26T17:29:18.993Z,50.87
2023-04-26T17:31:46.312Z,51.16
2023-04-26T17:34:13.405Z,50.68
2023-04-26T17:36:40.632Z,50.44
2023-04-26T17:39:08.281Z,49.80
2023-04-26T17:41:35.361Z,49.90
2023-04-26T17:44:02.446Z,49.84
2023-04-26T17:46:29.539Z,49.50
2023-04-26T17:48:56.736Z,49.11
2023-04-26T17:51:23.985Z,49.30
2023-04-26T17:53:51.101Z,48.87
2023-04-26T17:56:19.017Z,48.44
2023-04-26T17:58:46.097Z,47.90
2023-04-26T18:01:13.807Z,48.04
2023-04-26T18:03:41.429Z,48.42
2023-04-26T18:06:08.781Z,48.61
2023-04-26T18:08:36.815Z,49.40
2023-04-26T18:11:04.042Z,48.83
2023-04-26T18:13:31.182Z,49.31
2023-04-26T18:15:58.492Z,49.24
2023-04-26T18:18:27.767Z,49.15
2023-04-26T18:20:55.291Z,50.08
2023-04-26T18:23:22.363Z,49.68
2023-04-26T18:25:50.722Z,49.94
2023-04-26T18:28:17.920Z,49.87
2023-04-26T18:30:45.036Z,50.29
2023-04-26T18:33:12.352Z,49.91
2023-04-26T18:35:39.580Z,50.85
2023-04-26T18:38:06.840Z,50.76
2023-04-26T18:40:34.176Z,51.24
2023-04-26T18:43:01.352Z,51.10
2023-04-26T18:45:28.420Z,51.85
2023-04-26T18:47:55.664Z,51.87
2023-04-26T18:50:22.802Z,51.66
2023-04-26T18:52:50.011Z,52.34
2023-04-26T18:55:17.497Z,52.37
2023-04-26T18:57:44.704Z,53.00
2023-04-26T19:00:12.502Z,52.98
2023-04-26T19:02:42.849Z,53.47
2023-04-26T19:05:10.624Z,53.70
2023-04-26T19:07:37.933Z,53.42
2023-04-26T19:10:07.181Z,54.25
2023-04-26T19:12:34.329Z,53.71
2023-04-26T19:15:02.154Z,54.01
2023-04-26T19:17:29.774Z,54.40
2023-04-26T19:19:57.030Z,54.41
2023-04-26T19:22:24.230Z,55.48
2023-04-26T19:24:51.423Z,55.81
2023-04-26T19:27:18.628Z,55.61
2023-04-26T19:29:46.089Z,56.12
2023-04-26T19:32:14.575Z,56.10
2023-04-26T19:34:41.817Z,56.10
2023-04-26T19:37:08.945Z,57.01
2023-04-26T19:39:36.109Z,56.88
2023-04-26T19:42:04.935Z,56.90
2023-04-26T19:44:32.275Z,56.90
2023-04-26T19:46:59.631Z,57.40
2023-04-26T19:49:28.909Z,57.83
2023-04-26T19:51:56.332Z,57.38
2023-04-26T19:54:23.814Z,57.82
2023-04-26T19:56:51.266Z,57.51
2023-04-26T19:59:18.606Z,57.69
2023-04-26T20:01:45.761Z,58.01
2023-04-26T20:04:12.961Z,57.97
2023-04-26T20:06:40.184Z,58.49
2023-04-26T20:09:07.539Z,58.13
2023-04-26T20:11:34.890Z,58.79
2023-04-26T20:14:02.115Z,58.46
2023-04-26T20:16:29.330Z,58.27
2023-04-26T20:18:57.134Z,58.96
2023-04-26T20:21:24.238Z,58.84
2023-04-26T20:23:51.351Z,58.70
2023-04-26T20:26:18.726Z,58.87
2023-04-26T20:28:46.195Z,59.00
2023-04-26T20:31:13.340Z,59.08
2023-04-26T20:33:40.374Z,59.11
2023-04-26T20:36:07.542Z,59.18
2023-04-26T20:38:34.852Z,59.48
2023-04-26T20:41:01.932Z,59.56
2023-04-26T20:43:29.288Z,59.31
2023-04-26T20:45:56.330Z,59.42
2023-04-26T20:48:24.293Z,59.33
2023-04-26T20:50:54.363Z,59.67
2023-04-26T20:53:21.492Z,59.83
2023-04-26T20:55:48.614Z,59.51
2023-04-26T20:58:15.798Z,60.10
2023-04-26T21:00:42.916Z,60.20
2023-04-26T21:03:10.126Z,60.17
2023-04-26T21:05:37.374Z,60.18
2023-04-26T21:08:04.532Z,60.07
2023-04-26T21:10:31.698Z,60.03
2023-04-26T21:12:58.789Z,60.60
2023-04-26T21:15:25.940Z,60.48
2023-04-26T21:17:53.130Z,60.67
2023-04-26T21:20:20.524Z,60.89
2023-04-26T21:22:47.817Z,60.75
2023-04-26T21:25:17.219Z,61.16
2023-04-26T21:27:44.417Z,60.98
2023-04-26T21:30:12.232Z,60.81
2023-04-26T21:32:42.216Z,61.20
2023-04-26T21:35:11.128Z,61.55
2023-04-26T21:37:38.307Z,61.95
2023-04-26T21:40:06.814Z,61.82
2023-04-26T21:42:34.006Z,61.61
2023-04-26T21:45:01.589Z,61.57
2023-04-26T21:47:28.822Z,62.02
2023-04-26T21:49:56.136Z,61.68
2023-04-26T21:52:23.282Z,62.01
2023-04-26T21:54:52.708Z,62.27
2023-04-26T21:57:24.222Z,62.25
2023-04-26T21:59:51.697Z,62.64
2023-04-26T22:02:19.180Z,62.16
2023-04-26T22:04:46.909Z,62.20
2023-04-26T22:07:13.970Z,62.41
2023-04-26T22:09:41.240Z,62.79
2023-04-26T22:12:08.424Z,62.88
2023-04-26T22:14:35.607Z,62.58
2023-04-26T22:17:02.736Z,62.91
2023-04-26T22:19:29.834Z,63.21
2023-04-26T22:21:57.114Z,63.18
2023-04-26T22:24:24.307Z,63.68
2023-04-26T22:26:51.577Z,63.12
2023-04-26T22:29:18.638Z,63.17
2023-04-26T22:31:45.821Z,63.70
2023-04-26T22:34:12.898Z,63.47
2023-04-26T22:36:40.149Z,63.50
2023-04-26T22:39:07.263Z,63.56
2023-04-26T22:41:34.423Z,63.67
2023-04-26T22:44:01.491Z,63.87
2023-04-26T22:46:28.650Z,63.63
2023-04-26T22:48:55.809Z,63.60
2023-04-26T22:51:23.027Z,63.45
2023-04-26T22:53:50.067Z,63.82
2023-04-26T22:56:17.218Z,64.01
2023-04-26T22:58:44.281Z,63.97
2023-04-26T23:01:11.553Z,64.11
2023-04-26T23:03:38.768Z,64.25
2023-04-26T23:06:06.539Z,64.52
2023-04-26T23:08:33.847Z,64.36
2023-04-26T23:11:01.051Z,64.80
2023-04-26T23:13:29.774Z,64.61
2023-04-26T23:15:57.273Z,64.46
2023-04-26T23:18:26.830Z,64.50
2023-04-26T23:20:53.924Z,64.95
2023-04-26T23:23:21.090Z,64.78
2023-04-26T23:25:48.150Z,64.67
2023-04-26T23:28:15.425Z,64.92
2023-04-26T23:30:43.269Z,65.18
2023-04-26T23:33:10.445Z,65.25
2023-04-26T23:35:41.960Z,65.61
2023-04-26T23:38:09.286Z,65.31
2023-04-26T23:40:37.398Z,65.28
2023-04-26T23:43:06.367Z,65.29
2023-04-26T23:45:33.561Z,65.42
2023-04-26T23:48:01.044Z,65.40
2023-04-26T23:50:28.425Z,65.66
2023-04-26T23:52:55.760Z,66.03
2023-04-26T23:55:24.032Z,66.17
2023-04-26T23:57:51.179Z,66.28
